Figaró Montmany (Vallès Oriental)





Hora UTC 20:25
Temperatura 5.4 ºC
Humitat 67.0 %
Pressió 1006.1 hPa
Pluja 3.6 mm
Velocitat vent 8.0 km/h
Direcció vent

Dades diàries 2024-02-23



Hora UTC (hivern +1h; estiu +2h)
Temperatura (ºC) Humitat (%) Pressió (hPa) Velocitat vent (km/h) Precipitació (mm)
Hora UTC Aire Humitat Pressió Vel. Dir. Vel. Max Dir. Intent. màx 5 min.
00:05 10.4 87.0 1004.1 1.6 1.6 0.0
00:15 10.4 87.0 1004.1 1.6 4.8 0.4
00:25 10.6 87.0 1004.0 4.8 9.7 0.2
00:35 10.6 87.0 1003.9 3.4 9.7 0.0
00:45 10.6 87.0 1003.9 3.4 9.7 0.0
00:55 10.4 89.0 1003.7 4.8 9.7 0.0
01:05 10.3 89.0 1003.6 6.4 9.7 0.0
01:15 10.3 89.0 1003.6 6.4 9.7 0.0
01:25 10.2 90.0 1003.6 7.3 14.5 0.2
01:35 10.1 90.0 1003.9 9.7 14.5 0.4
01:45 10.1 90.0 1003.9 9.7 14.5 0.0
01:55 9.8 91.0 1003.8 5.3 14.5 2.0
02:05 9.8 92.0 1004.0 4.0 14.5 0.2
02:15 9.8 92.0 1004.0 4.0 14.5 0.0
02:25 9.8 92.0 1003.3 16.1 22.5 0.0
02:35 9.7 92.0 1003.4 10.8 22.5 0.2
02:45 9.7 92.0 1003.4 10.8 22.5 0.0
02:55 9.7 91.0 1003.3 12.9 22.5 0.0
03:05 9.6 91.0 1003.0 9.4 22.5 0.0
03:15 9.6 91.0 1003.0 9.4 22.5 0.0
03:25 9.6 92.0 1002.9 7.4 22.5 0.0
03:45 9.6 92.0 1002.9 7.4 22.5 0.0
03:55 9.1 87.0 1003.1 5.1 22.5 0.0
04:05 8.8 87.0 1003.2 1.6 22.5 0.0
04:15 8.8 87.0 1003.2 1.6 22.5 0.0
04:25 8.2 89.0 1003.2 2.4 22.5 0.0
04:35 7.4 91.0 1003.5 7.5 22.5 0.0
04:45 7.4 91.0 1003.5 7.5 22.5 0.0
04:55 7.0 91.0 1003.4 5.1 22.5 0.0
05:05 6.8 88.0 1003.6 11.3 22.5 0.0
05:15 6.8 88.0 1003.6 11.3 22.5 0.0
05:25 6.9 88.0 1003.6 6.2 22.5 0.0
05:35 6.3 88.0 1003.8 4.8 22.5 0.0
05:45 6.3 88.0 1003.8 4.8 22.5 0.0
05:55 5.9 89.0 1003.8 5.8 22.5 0.0
06:05 5.7 89.0 1003.9 8.0 22.5 0.0
06:15 5.7 89.0 1003.9 8.0 22.5 0.0
06:25 5.6 89.0 1004.0 6.6 22.5 0.0
06:35 5.5 90.0 1004.3 1.8 22.5 0.0
06:45 5.5 90.0 1004.3 1.8 22.5 0.0
06:55 5.6 90.0 1004.5 4.8 22.5 0.0
07:05 5.2 90.0 1004.9 4.8 22.5 0.0
07:15 5.2 90.0 1004.9 4.8 22.5 0.0
07:25 5.0 89.0 1005.2 4.8 22.5 0.0
07:35 5.2 90.0 1005.5 6.4 22.5 0.0
07:45 5.2 90.0 1005.5 6.4 22.5 0.0
07:55 5.3 91.0 1005.8 3.2 22.5 0.0
08:05 5.6 91.0 1006.0 2.8 22.5 0.0
08:15 5.6 91.0 1006.0 2.8 22.5 0.0
08:25 5.7 91.0 1005.9 4.8 22.5 0.0
08:35 5.9 91.0 1006.1 2.9 22.5 0.0
08:45 5.9 91.0 1006.1 2.9 22.5 0.0
08:55 6.6 88.0 1006.0 1.4 22.5 0.0
09:05 6.9 82.0 1005.9 3.1 22.5 0.0
09:15 6.9 82.0 1005.9 3.1 22.5 0.0
09:25 7.1 80.0 1006.0 6.4 22.5 0.0
09:35 7.2 79.0 1006.2 3.2 22.5 0.0
09:45 7.2 79.0 1006.2 3.2 22.5 0.0
09:55 7.4 79.0 1006.1 8.0 22.5 0.0
10:05 7.4 78.0 1006.0 6.7 22.5 0.0
10:15 7.4 78.0 1006.0 6.7 22.5 0.0
10:25 8.1 77.0 1006.0 4.8 22.5 0.0
10:35 8.2 73.0 1005.9 5.1 22.5 0.0
10:45 8.2 73.0 1005.9 5.1 22.5 0.0
10:55 8.9 68.0 1005.5 4.3 22.5 0.0
11:05 9.7 60.0 1005.6 4.2 22.5 0.0
11:15 9.7 60.0 1005.6 4.2 22.5 0.0
11:25 10.8 50.0 1005.4 8.0 22.5 0.0
11:35 10.9 48.0 1005.5 20.9 37.0 0.0
11:45 10.9 48.0 1005.5 20.9 37.0 0.0
11:55 10.8 46.0 1005.4 13.6 37.0 0.0
12:05 11.1 44.0 1004.9 12.9 37.0 0.0
12:15 11.1 44.0 1004.9 12.9 37.0 0.0
12:25 11.2 43.0 1005.1 30.6 37.0 0.0
12:35 11.2 45.0 1004.5 27.4 37.0 0.0
12:45 11.2 45.0 1004.5 27.4 37.0 0.0
12:55 11.2 46.0 1004.8 25.7 41.8 0.0
13:05 11.4 46.0 1004.3 24.1 41.8 0.0
13:15 11.4 46.0 1004.3 24.1 41.8 0.0
13:25 11.4 47.0 1004.1 16.8 46.7 0.0
13:35 11.7 46.0 1003.8 16.1 46.7 0.0
13:45 11.7 46.0 1003.8 16.1 46.7 0.0
13:55 12.1 45.0 1003.5 22.5 46.7 0.0
14:05 12.3 43.0 1003.6 15.5 46.7 0.0
14:15 12.3 43.0 1003.6 15.5 46.7 0.0
14:25 12.8 42.0 1003.5 12.4 46.7 0.0
14:35 12.8 42.0 1003.6 9.8 46.7 0.0
14:45 12.8 42.0 1003.6 9.8 46.7 0.0
14:55 12.6 41.0 1003.8 13.2 46.7 0.0
15:05 12.4 42.0 1003.7 17.7 46.7 0.0
15:15 12.4 42.0 1003.7 17.7 46.7 0.0
15:25 12.5 41.0 1003.8 25.7 46.7 0.0
15:35 12.3 40.0 1003.7 14.5 46.7 0.0
15:45 12.3 40.0 1003.7 14.5 46.7 0.0
15:55 12.2 39.0 1003.9 24.1 46.7 0.0
16:05 12.5 39.0 1003.9 7.1 46.7 0.0
16:15 12.5 39.0 1003.9 7.1 46.7 0.0
16:25 12.1 40.0 1003.8 10.6 46.7 0.0
16:35 12.0 40.0 1004.1 6.4 46.7 0.0
16:45 12.0 40.0 1004.1 6.4 46.7 0.0
16:55 11.8 41.0 1004.0 9.7 46.7 0.0
17:05 11.7 40.0 1004.1 9.4 46.7 0.0
17:15 11.7 40.0 1004.1 9.4 46.7 0.0
17:25 11.6 41.0 1004.3 4.8 46.7 0.0
17:35 10.9 41.0 1004.7 11.3 46.7 0.0
17:45 10.9 41.0 1004.7 11.3 46.7 0.0
17:55 10.9 42.0 1005.0 4.8 46.7 0.0
18:05 10.5 44.0 1005.1 3.8 46.7 0.0
18:15 10.5 44.0 1005.1 3.8 46.7 0.0
18:25 10.2 45.0 1005.3 4.3 46.7 0.0
18:35 9.5 50.0 1005.5 3.2 46.7 0.0
18:45 9.5 50.0 1005.5 3.2 46.7 0.0
18:55 8.6 54.0 1005.6 3.2 46.7 0.0
19:05 7.8 57.0 1005.6 4.7 46.7 0.0
19:15 7.8 57.0 1005.6 4.7 46.7 0.0
19:25 7.2 60.0 1005.8 4.2 46.7 0.0
19:35 6.7 62.0 1005.8 4.0 46.7 0.0
19:45 6.7 62.0 1005.8 4.0 46.7 0.0
19:55 6.2 64.0 1005.8 5.3 46.7 0.0
20:05 5.9 66.0 1005.9 8.7 46.7 0.0
20:15 5.9 66.0 1005.9 8.7 46.7 0.0
20:25 5.4 67.0 1006.1 8.0 46.7 0.0
Màxima 12.8 92.0 1006.2 30.6 46.7 2.0
Mínima 5.0 39.0 1002.9
Total 3.6